Sunday, September 21, 2014
22:15 UTC
  |  Log In   |  Register Free
Airport Search:

Raton Municipal/Crews Field Airport
(KRTN)

Raton Municipal/Crews Field Airport Diagram
No Airport Diagram Available

FAA data valid effective September 18, 2014 - November 13, 2014 (unless otherwise noted).

 
 
 
 
 
 
 
 
 
 
 
 
 
 

Current Aviation Weather for Raton Municipal/Crews Field Airport (KRTN)

The most recent METAR observation for KRTN was updated at: 2113
METAR Summary (Translated METAR)
KRTN
212053Z AUTO 10013KT 10SM SCT050 BKN060 21/12 A3035 RMK AO2 SLP201 60001 T02060122 58013
KTAD
212054Z AUTO 11014G20KT 10SM SCT055 SCT075 23/10 A3032 RMK AO2 LTG DSNT SW SLP193 T02330100 56025
(32 nm NE from KRTN)
KAXX
212155Z AUTO 18017G22KT 10SM BKN039 BKN045 OVC050 18/07 A3047 RMK AO2 T01810067
(42.5 nm SW from KRTN)
TAF
No TAF information found within 50 nm of KRTN
  Airport Weather Conditions for KRTN

 Current Weather at RTN
69° F
Mostly Cloudy
East winds at 15.0 mph
RTN NOAA Radar

Pressure: 30.35 in
Humidity: 59%
Wind: East at 15.0 MPH (13 KT)
Dew Point: 54.0°F
Visibility: 10.00 mi


Airport Weather Forecast for KRTN

Translated METAR and TAF for KRTN
Translated METAR for KRTN (2209 UTC 21 September 2014)
found at http://aviationweather.gov/adds/metars/
 
METAR text: KRTN 212153Z AUTO 10014KT 10SM FEW055 21/11 A3034 RMK AO2 LTG DSNT N SLP193 T02060106
Conditions at: KRTN (RATON , NM, US) observed 2153 UTC 21 September 2014
Temperature: 20.6°C (69°F)
Dewpoint: 10.6°C (51°F) [RH = 53%]
Pressure (altimeter): 30.34 inches Hg (1027.5 mb)
[Sea-level pressure: 1019.3 mb]
Winds: from the E (100 degrees) at 16 MPH (14 knots; 7.3 m/s)
Visibility: 10 or more miles (16+ km)
Ceiling: at least 12,000 feet AGL
Clouds: few clouds at 5500 feet AGL
Weather: automated observation with no human augmentation;
there may or may not be significant weather present at this time
Translated TAF for KRTN

There is no translated TAF available for this airport

Find All Airport Services Find A Hotel Find A Rental Car Find A Golf Course Find A Restaurant $100 Hamburger



FBO's on the Field
FBO Company Facility Photos Services Transportation Aviation Fuel Prices: Prices include tax
Catering Weather Repair Courtesy Rental Type 100LL JetA JetA+ MOGAS 8087
 
Pegasus Aviation

This FBO has not yet been rated
FS:Phillips66
Last Updated: Sep-04
Login to update fuel prices
SS:
Contact Pegasus AviationMore FBO Information
 
Add another FBO Facility Photos Catering Weather Repair Courtesy Rental Type 100LL JetA JetA+ MOGAS 8087
Services Transportation Aviation Fuel Prices: Prices include tax


model-print
model-print
model-print
model-print